Time;durP1;ratioP1;P1;durP2;ratioP2;P2;SDS_P1;SDS_P2;PMS_P1;PMS_P2;Temp;Humidity;BMP_temperature;BMP_pressure;BME280_temperature;BME280_humidity;BME280_pressure;Samples;Min_cycle;Max_cycle;Signal;HPM_P1;HPM_P2
2023/01/23 00:00:30;;;;;;;24.27;14.37;;;-0.20;54.00;;;;;;4985211;28;47941;-62
2023/01/23 00:02:56;;;;;;;25.55;14.18;;;-0.40;54.30;;;;;;4989138;28;46669;-61
2023/01/23 00:05:22;;;;;;;30.37;15.30;;;-0.60;54.90;;;;;;4990784;28;46364;-61
2023/01/23 00:07:48;;;;;;;27.10;14.60;;;-0.70;55.30;;;;;;4990063;28;46718;-61
2023/01/23 00:10:14;;;;;;;25.93;15.53;;;-0.80;55.80;;;;;;4989980;28;46277;-61
2023/01/23 00:12:45;;;;;;;30.25;15.90;;;-0.70;55.60;;;;;;4993153;28;46693;-62
2023/01/23 00:15:14;;;;;;;30.33;16.58;;;-0.60;55.10;;;;;;4994554;28;46368;-61
2023/01/23 00:17:40;;;;;;;29.38;15.43;;;-0.50;54.70;;;;;;4989638;28;46405;-62
2023/01/23 00:20:08;;;;;;;35.28;16.33;;;-0.30;54.80;;;;;;4992350;28;48036;-61
2023/01/23 00:22:33;;;;;;;29.85;15.95;;;-0.50;54.80;;;;;;4994616;28;46400;-62
2023/01/23 00:24:59;;;;;;;28.73;14.87;;;-0.50;54.90;;;;;;4993542;28;46361;-59
2023/01/23 00:27:25;;;;;;;31.23;16.70;;;-0.50;54.70;;;;;;4992482;28;46577;-61
2023/01/23 00:29:53;;;;;;;36.13;16.43;;;-0.40;54.50;;;;;;4990257;28;46451;-61
2023/01/23 00:32:19;;;;;;;27.60;15.13;;;-0.40;54.50;;;;;;4992180;28;46568;-60
2023/01/23 00:34:45;;;;;;;28.60;16.08;;;-0.50;54.90;;;;;;4994309;28;46589;-60
2023/01/23 00:37:12;;;;;;;32.47;16.38;;;-0.50;54.70;;;;;;4992374;28;46413;-61
2023/01/23 00:39:38;;;;;;;33.05;15.48;;;-0.50;55.10;;;;;;4992405;28;46482;-60
2023/01/23 00:42:04;;;;;;;34.73;17.73;;;-0.60;55.30;;;;;;4994988;28;45781;-61
2023/01/23 00:44:30;;;;;;;36.17;18.25;;;-0.60;55.40;;;;;;4992381;28;46446;-61
2023/01/23 00:46:56;;;;;;;39.13;18.30;;;-0.60;55.40;;;;;;4995042;28;46644;-62
2023/01/23 00:49:22;;;;;;;35.00;18.40;;;-0.70;55.60;;;;;;4993950;28;47115;-61
2023/01/23 00:51:49;;;;;;;37.50;18.50;;;-0.60;56.20;;;;;;4994430;28;46724;-61
2023/01/23 00:54:15;;;;;;;42.85;19.73;;;-0.60;56.00;;;;;;4994975;28;46392;-62
2023/01/23 00:56:41;;;;;;;36.40;18.25;;;-0.50;55.60;;;;;;4995860;28;46487;-61
2023/01/23 00:59:06;;;;;;;37.63;17.47;;;-0.50;55.10;;;;;;4992510;28;46582;-62
2023/01/23 01:01:32;;;;;;;35.80;17.73;;;-0.30;55.00;;;;;;4995998;28;46420;-62
2023/01/23 01:03:58;;;;;;;37.00;17.60;;;-0.30;54.70;;;;;;4991239;28;46310;-63
2023/01/23 01:06:25;;;;;;;38.13;17.40;;;-0.30;54.70;;;;;;4989499;28;46369;-62
2023/01/23 01:08:51;;;;;;;38.42;18.33;;;-0.40;55.00;;;;;;4987513;28;46258;-62
2023/01/23 01:11:16;;;;;;;41.20;19.13;;;-0.40;55.60;;;;;;4995044;28;46602;-63
2023/01/23 01:13:43;;;;;;;36.05;18.92;;;-0.40;55.40;;;;;;4991377;28;45938;-62
2023/01/23 01:16:10;;;;;;;32.17;16.70;;;-0.30;55.00;;;;;;4990632;28;46466;-60
2023/01/23 01:18:36;;;;;;;36.33;17.75;;;-0.10;54.70;;;;;;4989779;28;46458;-62
2023/01/23 01:21:06;;;;;;;42.83;20.40;;;-0.20;54.80;;;;;;4990815;28;46395;-60
2023/01/23 01:23:32;;;;;;;39.30;19.10;;;-0.20;54.80;;;;;;4990098;28;46489;-59
2023/01/23 01:25:59;;;;;;;41.30;18.93;;;-0.20;55.00;;;;;;4993088;28;46355;-62
2023/01/23 01:28:27;;;;;;;40.42;18.42;;;-0.20;55.00;;;;;;4991051;28;47195;-62
2023/01/23 01:30:52;;;;;;;37.05;18.58;;;-0.10;55.00;;;;;;4989140;28;46628;-61
2023/01/23 01:33:18;;;;;;;36.37;17.30;;;-0.20;55.50;;;;;;4993780;28;46338;-61
2023/01/23 01:35:43;;;;;;;38.00;18.80;;;-0.30;56.80;;;;;;4996698;28;46489;-63
2023/01/23 01:38:09;;;;;;;37.00;19.10;;;-0.30;55.80;;;;;;4990610;28;46412;-61
2023/01/23 01:40:35;;;;;;;39.50;18.27;;;-0.30;55.70;;;;;;4990888;28;46376;-59
2023/01/23 01:43:16;;;;;;;29.55;16.27;;;-0.30;55.80;;;;;;4995983;28;46487;-61
2023/01/23 01:46:02;;;;;;;32.33;16.50;;;-0.30;55.60;;;;;;4993369;28;46395;-63
2023/01/23 01:48:34;;;;;;;32.13;16.75;;;-0.40;55.80;;;;;;4989356;28;47064;-62
2023/01/23 01:51:02;;;;;;;35.53;17.50;;;-0.30;56.00;;;;;;4990673;28;46368;-61
2023/01/23 01:53:30;;;;;;;31.70;17.58;;;-0.30;56.10;;;;;;4993849;28;45878;-62
2023/01/23 01:55:56;;;;;;;36.65;17.05;;;-0.40;55.90;;;;;;4992416;28;46416;-61
2023/01/23 01:58:22;;;;;;;31.98;16.33;;;-0.20;56.60;;;;;;4990023;28;47149;-62
2023/01/23 02:00:48;;;;;;;32.75;17.63;;;-0.40;56.20;;;;;;4994444;28;46433;-63
2023/01/23 02:03:15;;;;;;;36.50;17.00;;;-0.40;56.10;;;;;;4989958;28;46321;-63
2023/01/23 02:05:47;;;;;;;31.58;16.30;;;-0.40;56.10;;;;;;4992216;28;46375;-61
2023/01/23 02:08:38;;;;;;;34.88;17.20;;;-0.40;57.70;;;;;;4991187;28;46350;-60
2023/01/23 02:11:05;;;;;;;31.20;16.55;;;-0.20;56.10;;;;;;4990149;28;46494;-60
2023/01/23 02:13:37;;;;;;;36.05;16.38;;;-0.20;55.60;;;;;;4991614;28;46458;-60
2023/01/23 02:16:07;;;;;;;34.60;17.65;;;-0.20;55.50;;;;;;4990693;28;46483;-60
2023/01/23 02:18:36;;;;;;;32.58;17.63;;;-0.20;55.40;;;;;;4990697;28;46538;-62
2023/01/23 02:21:05;;;;;;;30.70;16.23;;;-0.10;55.20;;;;;;4989190;28;46449;-61
2023/01/23 02:23:37;;;;;;;35.63;17.20;;;-0.10;55.00;;;;;;4993849;28;45976;-61
2023/01/23 02:26:08;;;;;;;37.40;17.48;;;-0.20;55.20;;;;;;4990405;28;45833;-61
2023/01/23 02:28:39;;;;;;;27.27;15.18;;;-0.10;55.50;;;;;;4991168;28;46428;-61
2023/01/23 02:31:06;;;;;;;36.30;16.55;;;-0.10;55.40;;;;;;4987243;28;46126;-62
2023/01/23 02:33:31;;;;;;;30.40;15.98;;;-0.10;55.30;;;;;;4981120;28;46407;-62
2023/01/23 02:35:58;;;;;;;34.87;17.60;;;0.00;55.50;;;;;;4991765;28;46451;-63
2023/01/23 02:38:26;;;;;;;35.38;17.35;;;-0.10;55.50;;;;;;4997094;28;45954;-60
2023/01/23 02:40:54;;;;;;;31.02;16.13;;;-0.20;56.10;;;;;;4989784;28;46693;-62
2023/01/23 02:43:24;;;;;;;32.38;16.58;;;-0.40;56.60;;;;;;4990705;28;45981;-62
2023/01/23 02:45:50;;;;;;;37.80;18.45;;;-0.50;56.50;;;;;;4993690;28;46485;-62
2023/01/23 02:48:16;;;;;;;37.15;17.35;;;-0.50;56.50;;;;;;4991372;28;46466;-62
2023/01/23 02:50:45;;;;;;;42.93;19.93;;;-0.40;56.60;;;;;;4989433;28;46258;-63
2023/01/23 02:53:11;;;;;;;37.80;19.70;;;-0.40;56.60;;;;;;4993696;28;46685;-62
2023/01/23 02:55:41;;;;;;;43.60;17.63;;;-0.60;56.70;;;;;;4987411;28;46528;-59
2023/01/23 03:00:51;;;;;;;47.83;19.38;;;-0.80;57.90;;;;;;4989566;28;46706;-61
2023/01/23 03:03:17;;;;;;;46.70;19.50;;;-0.80;58.10;;;;;;4986554;28;46494;-61
2023/01/23 03:05:43;;;;;;;43.40;19.55;;;-0.80;57.90;;;;;;4989363;28;46500;-62
2023/01/23 03:08:08;;;;;;;47.60;19.97;;;-0.80;58.00;;;;;;4985909;28;47082;-60
2023/01/23 03:10:34;;;;;;;46.53;21.07;;;-0.80;57.90;;;;;;4986906;28;46425;-59
2023/01/23 03:13:06;;;;;;;44.83;19.63;;;-0.70;57.70;;;;;;4985454;28;46353;-60
2023/01/23 03:15:37;;;;;;;46.83;21.25;;;-0.60;57.30;;;;;;4986751;28;46448;-62
2023/01/23 03:18:03;;;;;;;41.58;20.35;;;-0.50;57.10;;;;;;4985410;28;47352;-60
2023/01/23 03:20:29;;;;;;;44.75;20.30;;;-0.40;56.60;;;;;;4988154;28;46444;-61
2023/01/23 03:22:55;;;;;;;39.47;18.97;;;-0.40;57.00;;;;;;4984176;28;46420;-63
2023/01/23 03:25:21;;;;;;;40.85;19.70;;;-0.50;56.80;;;;;;4991014;28;46528;-60
2023/01/23 03:27:47;;;;;;;38.63;19.40;;;-0.60;57.30;;;;;;4985414;28;46463;-63
2023/01/23 03:30:15;;;;;;;38.03;18.40;;;-0.70;57.60;;;;;;4984759;28;46487;-60
2023/01/23 03:32:42;;;;;;;41.10;19.90;;;-0.80;57.90;;;;;;4987425;28;45853;-62
2023/01/23 03:35:09;;;;;;;46.58;20.15;;;-0.90;58.00;;;;;;4984441;28;46318;-63
2023/01/23 03:37:35;;;;;;;71.90;27.95;;;-1.00;58.10;;;;;;4983865;28;47450;-63
2023/01/23 03:43:06;;;;;;;48.55;20.83;;;-1.20;58.50;;;;;;4949026;28;46495;-63
2023/01/23 03:45:32;;;;;;;44.20;21.30;;;-1.30;58.50;;;;;;4948563;28;46441;-63
2023/01/23 03:47:58;;;;;;;41.97;20.77;;;-1.20;58.50;;;;;;4950449;28;48486;-63
2023/01/23 03:50:23;;;;;;;39.63;17.50;;;-1.10;58.30;;;;;;4994579;28;46455;-63
2023/01/23 03:52:49;;;;;;;36.60;19.10;;;-1.10;57.90;;;;;;4992204;28;46670;-62
2023/01/23 03:55:15;;;;;;;37.20;18.60;;;-0.90;57.60;;;;;;4993686;28;46400;-61
2023/01/23 03:57:40;;;;;;;40.07;17.50;;;-1.00;57.20;;;;;;4990482;28;48123;-62
2023/01/23 04:00:07;;;;;;;38.33;18.33;;;-0.90;57.20;;;;;;4993944;28;46439;-62
2023/01/23 04:02:32;;;;;;;40.88;17.20;;;-0.90;57.10;;;;;;4992752;28;46357;-63
2023/01/23 04:04:58;;;;;;;41.40;20.73;;;-0.80;56.60;;;;;;4994236;28;46487;-60
2023/01/23 04:07:24;;;;;;;40.00;18.40;;;-0.80;56.30;;;;;;4991796;28;47268;-63
2023/01/23 04:09:49;;;;;;;37.87;18.13;;;-0.70;56.50;;;;;;4997524;28;46464;-63
2023/01/23 04:12:15;;;;;;;39.53;18.27;;;-0.70;56.60;;;;;;5000014;28;46384;-61
2023/01/23 04:14:41;;;;;;;42.00;18.27;;;-0.70;56.70;;;;;;4992722;28;46420;-61
2023/01/23 04:17:07;;;;;;;43.17;20.70;;;-0.70;56.70;;;;;;4996963;28;46411;-62
2023/01/23 04:19:34;;;;;;;47.78;20.98;;;-0.70;57.10;;;;;;4991926;28;46496;-62
2023/01/23 04:22:00;;;;;;;42.85;20.77;;;-0.70;57.30;;;;;;4987204;28;46412;-60
2023/01/23 04:24:26;;;;;;;49.37;21.67;;;-0.80;57.60;;;;;;4993909;28;46485;-62
2023/01/23 04:26:52;;;;;;;44.33;21.55;;;-0.70;57.80;;;;;;4995028;28;46458;-61
2023/01/23 04:29:18;;;;;;;39.20;18.48;;;-0.70;57.20;;;;;;4991502;28;45835;-63
2023/01/23 04:31:43;;;;;;;34.67;17.43;;;-0.50;56.50;;;;;;4989206;28;45838;-61
2023/01/23 04:34:09;;;;;;;37.13;19.27;;;-0.50;56.50;;;;;;4990549;28;46364;-61
2023/01/23 04:36:34;;;;;;;39.53;20.43;;;-0.40;56.60;;;;;;4992437;28;46953;-63
2023/01/23 04:39:01;;;;;;;43.47;19.70;;;-0.40;56.60;;;;;;4985567;28;46403;-61
2023/01/23 04:41:28;;;;;;;38.10;19.10;;;-0.40;56.60;;;;;;4994011;28;46379;-62
2023/01/23 04:43:54;;;;;;;39.80;19.10;;;-0.50;56.60;;;;;;4994221;28;46491;-63
2023/01/23 04:46:19;;;;;;;34.77;18.07;;;-0.50;56.80;;;;;;4995108;28;46485;-63
2023/01/23 04:48:46;;;;;;;38.33;18.20;;;-0.50;57.00;;;;;;4991442;28;46712;-63
2023/01/23 04:51:12;;;;;;;36.57;18.97;;;-0.50;57.10;;;;;;4993141;28;46317;-63
2023/01/23 04:53:37;;;;;;;34.03;16.70;;;-0.50;57.20;;;;;;4994312;28;46308;-61
2023/01/23 04:56:04;;;;;;;33.53;17.03;;;-0.50;57.20;;;;;;4995193;28;48045;-63
2023/01/23 04:58:29;;;;;;;35.35;16.92;;;-0.50;57.00;;;;;;4988496;28;46496;-62
2023/01/23 05:01:02;;;;;;;38.23;18.43;;;-0.50;56.80;;;;;;4994306;28;46432;-61
2023/01/23 05:03:27;;;;;;;34.95;18.00;;;-0.50;57.20;;;;;;4994602;28;46428;-62
2023/01/23 05:05:53;;;;;;;36.70;17.30;;;-0.60;57.70;;;;;;4990970;28;47189;-62
2023/01/23 05:08:19;;;;;;;31.43;16.80;;;-0.60;57.80;;;;;;4988655;28;46426;-63
2023/01/23 05:10:44;;;;;;;34.43;16.60;;;-0.60;57.90;;;;;;4991167;28;46445;-62
2023/01/23 05:13:10;;;;;;;31.20;17.47;;;-0.70;58.10;;;;;;4993803;28;46376;-62
2023/01/23 05:15:35;;;;;;;32.13;17.27;;;-0.60;57.90;;;;;;4989688;28;46443;-62
2023/01/23 05:18:01;;;;;;;38.53;17.70;;;-0.40;57.70;;;;;;4999592;28;46398;-63
2023/01/23 05:20:27;;;;;;;36.93;18.40;;;-0.50;57.30;;;;;;4987317;28;46444;-63
2023/01/23 05:22:52;;;;;;;44.30;19.83;;;-0.50;57.30;;;;;;4997074;28;46384;-61
2023/01/23 05:25:23;;;;;;;39.00;18.47;;;-0.50;57.30;;;;;;4993493;28;46416;-63
2023/01/23 05:27:49;;;;;;;48.80;19.02;;;-0.50;57.20;;;;;;4984038;28;46654;-64
2023/01/23 05:30:16;;;;;;;39.70;18.57;;;-0.40;57.30;;;;;;4994191;28;46342;-63
2023/01/23 05:32:42;;;;;;;35.88;18.10;;;-0.40;57.40;;;;;;4989865;28;46663;-62
2023/01/23 05:35:08;;;;;;;40.13;20.20;;;-0.40;57.30;;;;;;4991470;28;46499;-64
2023/01/23 05:37:34;;;;;;;36.95;19.23;;;-0.50;57.70;;;;;;4989540;28;46520;-64
2023/01/23 05:39:59;;;;;;;43.20;20.37;;;-0.50;57.90;;;;;;4991759;28;46389;-63
2023/01/23 05:42:25;;;;;;;40.03;20.37;;;-0.50;58.00;;;;;;4991895;28;46364;-62
2023/01/23 05:44:51;;;;;;;48.28;27.20;;;-0.50;57.90;;;;;;4988415;28;47233;-60
2023/01/23 05:47:16;;;;;;;48.33;22.90;;;-0.40;57.90;;;;;;4993066;28;46396;-61
2023/01/23 05:49:42;;;;;;;41.07;19.30;;;-0.40;58.80;;;;;;4994497;28;46838;-60
2023/01/23 05:52:08;;;;;;;42.43;20.70;;;-0.40;58.70;;;;;;4990273;28;46611;-62
2023/01/23 05:54:33;;;;;;;42.93;20.63;;;-0.30;58.50;;;;;;4990277;28;46483;-62
2023/01/23 05:56:59;;;;;;;44.07;20.00;;;-0.30;58.40;;;;;;4990248;28;46233;-62
2023/01/23 05:59:25;;;;;;;42.77;20.17;;;-0.30;58.50;;;;;;4993520;28;46435;-61
2023/01/23 06:01:50;;;;;;;42.20;19.73;;;-0.40;58.80;;;;;;4990714;28;46345;-60
2023/01/23 06:04:16;;;;;;;40.40;19.93;;;-0.40;58.60;;;;;;4986739;28;46370;-61
2023/01/23 06:06:42;;;;;;;44.80;20.00;;;-0.30;58.50;;;;;;4988542;28;45893;-62
2023/01/23 06:09:08;;;;;;;44.40;20.15;;;-0.40;58.50;;;;;;4992854;28;46518;-61
2023/01/23 06:11:34;;;;;;;43.65;19.95;;;-0.30;58.30;;;;;;4989589;28;46484;-62
2023/01/23 06:13:59;;;;;;;40.67;20.13;;;-0.30;58.40;;;;;;4989770;28;46423;-62
2023/01/23 06:16:25;;;;;;;41.90;20.60;;;-0.30;58.40;;;;;;4991218;28;46888;-61
2023/01/23 06:18:51;;;;;;;43.47;20.30;;;-0.30;58.30;;;;;;4992912;28;46561;-61
2023/01/23 06:21:17;;;;;;;48.30;20.90;;;-0.40;58.70;;;;;;4988320;28;46292;-61
2023/01/23 06:23:46;;;;;;;46.78;20.80;;;-0.40;58.90;;;;;;4989291;28;47353;-61
2023/01/23 06:26:12;;;;;;;53.60;22.00;;;-0.30;58.70;;;;;;4989677;28;46363;-62
2023/01/23 06:28:38;;;;;;;45.90;20.42;;;-0.40;58.80;;;;;;4989491;28;46499;-63
2023/01/23 06:31:05;;;;;;;52.42;22.42;;;-0.40;59.30;;;;;;4989194;28;46562;-61
2023/01/23 06:33:31;;;;;;;51.15;21.55;;;-0.40;59.20;;;;;;4996379;28;46392;-62
2023/01/23 06:36:01;;;;;;;54.35;23.67;;;-0.50;59.80;;;;;;4991101;28;46428;-60
2023/01/23 06:38:27;;;;;;;56.60;23.15;;;-0.60;61.40;;;;;;4991655;28;45888;-61
2023/01/23 06:40:53;;;;;;;51.33;22.05;;;-0.60;60.40;;;;;;4989552;28;46286;-62
2023/01/23 06:43:20;;;;;;;46.90;21.43;;;-0.60;60.50;;;;;;4992560;28;47043;-61
2023/01/23 06:45:46;;;;;;;46.95;21.30;;;-0.60;60.50;;;;;;4993967;28;46605;-62
2023/01/23 06:48:12;;;;;;;51.03;21.85;;;-0.60;60.30;;;;;;4993397;28;46345;-61
2023/01/23 06:50:42;;;;;;;54.58;22.70;;;-0.60;60.50;;;;;;4991240;28;46422;-62
2023/01/23 06:53:10;;;;;;;46.22;21.75;;;-0.60;60.80;;;;;;4971711;28;48509;-61
2023/01/23 06:55:36;;;;;;;57.38;25.15;;;-0.50;60.80;;;;;;4988905;28;46281;-61
2023/01/23 06:58:02;;;;;;;55.20;22.00;;;-0.50;60.90;;;;;;4992967;28;46691;-61
2023/01/23 07:00:28;;;;;;;52.07;23.07;;;-0.60;61.10;;;;;;4991083;28;46522;-62
2023/01/23 07:02:57;;;;;;;62.00;29.77;;;-0.50;60.90;;;;;;4989510;28;47183;-61
2023/01/23 07:05:23;;;;;;;59.10;26.20;;;-0.50;60.90;;;;;;4990034;28;46515;-61
2023/01/23 07:07:50;;;;;;;53.37;23.70;;;-0.50;62.00;;;;;;4989705;28;46469;-63
2023/01/23 07:10:16;;;;;;;48.97;20.63;;;-0.50;62.60;;;;;;4991954;28;46432;-61
2023/01/23 07:12:41;;;;;;;56.88;27.70;;;-0.40;62.60;;;;;;4988046;28;48250;-61
2023/01/23 07:15:08;;;;;;;47.80;23.37;;;-0.50;62.50;;;;;;4990163;28;46279;-62
2023/01/23 07:17:34;;;;;;;59.60;26.80;;;-0.50;63.30;;;;;;4985321;28;46345;-61
2023/01/23 07:19:59;;;;;;;53.47;22.83;;;-0.50;63.40;;;;;;4992533;28;46293;-61
2023/01/23 07:22:25;;;;;;;47.70;23.00;;;-0.50;63.70;;;;;;4988754;28;46267;-63
2023/01/23 07:24:51;;;;;;;49.20;23.87;;;-0.50;63.60;;;;;;4987769;28;46814;-64
2023/01/23 07:27:16;;;;;;;47.90;20.37;;;-0.50;63.60;;;;;;4986783;28;46492;-62
2023/01/23 07:29:42;;;;;;;50.80;21.83;;;-0.40;63.40;;;;;;4989148;28;46254;-60
2023/01/23 07:32:08;;;;;;;43.70;21.10;;;-0.40;63.20;;;;;;4990047;28;46437;-64
2023/01/23 07:34:33;;;;;;;44.10;22.40;;;-0.20;62.90;;;;;;4990468;28;46380;-63
2023/01/23 07:36:59;;;;;;;51.10;22.87;;;-0.20;62.40;;;;;;4986571;28;46044;-62
2023/01/23 07:39:25;;;;;;;48.30;21.30;;;-0.10;62.20;;;;;;4991381;28;46566;-62
2023/01/23 07:41:50;;;;;;;42.70;21.20;;;-0.10;62.00;;;;;;4988800;28;46447;-62
2023/01/23 07:44:18;;;;;;;47.23;21.40;;;-0.10;62.20;;;;;;4985479;28;46445;-61
2023/01/23 07:46:45;;;;;;;44.83;20.90;;;-0.10;62.20;;;;;;4992737;28;46502;-62
2023/01/23 07:49:11;;;;;;;47.75;22.10;;;0.00;61.90;;;;;;4988264;28;45949;-63
2023/01/23 07:51:37;;;;;;;48.28;21.73;;;0.00;61.70;;;;;;4988989;28;47389;-60
2023/01/23 07:54:03;;;;;;;51.70;25.45;;;0.00;61.70;;;;;;4988319;28;46602;-62
2023/01/23 07:56:28;;;;;;;43.95;23.05;;;0.00;61.90;;;;;;4986300;28;46331;-60
2023/01/23 07:58:54;;;;;;;47.40;21.83;;;-0.10;62.60;;;;;;4990382;28;46450;-60
2023/01/23 08:01:20;;;;;;;42.03;21.10;;;0.00;62.80;;;;;;4991312;28;47231;-62
2023/01/23 08:03:46;;;;;;;48.50;21.47;;;-0.10;62.90;;;;;;4988778;28;46456;-62
2023/01/23 08:06:11;;;;;;;39.50;19.80;;;-0.10;62.90;;;;;;4990300;28;46502;-61
2023/01/23 08:08:37;;;;;;;39.17;18.77;;;-0.10;62.90;;;;;;4988662;28;46511;-62
2023/01/23 08:11:05;;;;;;;34.13;16.87;;;0.10;62.70;;;;;;4991897;28;46086;-59
2023/01/23 08:13:31;;;;;;;32.97;17.55;;;0.20;61.90;;;;;;4992809;28;46510;-62
2023/01/23 08:15:57;;;;;;;31.83;16.03;;;0.30;61.60;;;;;;4990844;28;46368;-63
2023/01/23 08:18:24;;;;;;;34.05;18.00;;;0.50;61.00;;;;;;4983254;28;46373;-63
2023/01/23 08:20:54;;;;;;;33.40;16.98;;;0.60;60.90;;;;;;4989873;28;46187;-62
2023/01/23 08:23:23;;;;;;;33.60;17.63;;;0.60;60.90;;;;;;4987816;28;46247;-60
2023/01/23 08:25:56;;;;;;;36.55;16.90;;;0.70;61.00;;;;;;4990355;28;46561;-61
2023/01/23 08:28:23;;;;;;;33.40;16.98;;;0.80;60.80;;;;;;4991764;28;46495;-61
2023/01/23 08:30:49;;;;;;;28.13;15.40;;;0.90;60.60;;;;;;4990262;28;47355;-60
2023/01/23 08:33:15;;;;;;;33.30;15.90;;;0.80;60.90;;;;;;4997153;28;46309;-64
2023/01/23 08:35:52;;;;;;;30.95;15.60;;;0.80;61.10;;;;;;4989610;28;46826;-62
2023/01/23 08:38:18;;;;;;;30.77;15.38;;;0.80;61.00;;;;;;4986627;28;46678;-62
2023/01/23 08:40:45;;;;;;;33.50;14.20;;;0.80;61.10;;;;;;4989986;28;46220;-61
2023/01/23 08:43:12;;;;;;;27.83;14.15;;;0.80;61.30;;;;;;4989693;28;46489;-60
2023/01/23 08:45:39;;;;;;;24.98;12.77;;;0.70;61.40;;;;;;4995943;28;46555;-62
2023/01/23 08:48:05;;;;;;;27.67;12.73;;;0.60;61.60;;;;;;4994747;28;46495;-63
2023/01/23 08:50:31;;;;;;;24.90;11.98;;;0.70;61.50;;;;;;4992482;28;46562;-61
2023/01/23 08:52:56;;;;;;;23.97;12.23;;;0.70;61.50;;;;;;4979427;28;45754;-63
2023/01/23 08:55:22;;;;;;;26.37;12.30;;;0.60;61.90;;;;;;4994895;28;46415;-61
2023/01/23 08:57:48;;;;;;;22.00;11.63;;;0.50;62.00;;;;;;4989223;28;46402;-62
2023/01/23 09:00:14;;;;;;;19.97;11.23;;;0.60;62.10;;;;;;4988679;28;46389;-62
2023/01/23 09:02:39;;;;;;;21.83;10.40;;;0.70;61.80;;;;;;4989823;28;46597;-62
2023/01/23 09:05:05;;;;;;;18.73;10.10;;;0.80;61.60;;;;;;4991691;28;46447;-61
2023/01/23 09:07:31;;;;;;;22.75;11.93;;;0.80;61.50;;;;;;4992729;28;46555;-63
2023/01/23 09:09:56;;;;;;;21.47;11.57;;;1.00;61.80;;;;;;4990855;28;47103;-63
2023/01/23 09:12:22;;;;;;;21.23;11.80;;;1.00;61.50;;;;;;4994297;28;46658;-63
2023/01/23 09:14:47;;;;;;;20.27;11.17;;;1.10;61.80;;;;;;4992869;28;46516;-61
2023/01/23 09:17:13;;;;;;;22.83;12.70;;;0.90;61.80;;;;;;4994338;28;46023;-62
2023/01/23 09:19:38;;;;;;;21.90;12.87;;;1.10;61.50;;;;;;4989124;28;47167;-62
2023/01/23 09:22:04;;;;;;;27.30;12.07;;;1.10;61.40;;;;;;4995803;28;46686;-64
2023/01/23 09:24:30;;;;;;;22.97;12.20;;;1.20;61.70;;;;;;4991379;28;46678;-65
2023/01/23 09:26:55;;;;;;;23.93;12.57;;;1.30;61.30;;;;;;4991075;28;46474;-63
2023/01/23 09:29:21;;;;;;;25.77;11.67;;;1.30;61.10;;;;;;4989875;28;46005;-62
2023/01/23 09:31:46;;;;;;;22.53;11.07;;;1.40;61.10;;;;;;4974955;28;46384;-62
2023/01/23 09:34:12;;;;;;;29.97;12.23;;;1.40;61.20;;;;;;4992306;28;46453;-64
2023/01/23 09:36:37;;;;;;;21.97;12.20;;;1.50;61.20;;;;;;4992421;28;46633;-63
2023/01/23 09:39:03;;;;;;;21.07;10.53;;;1.50;61.10;;;;;;4993379;28;46155;-63
2023/01/23 09:41:30;;;;;;;23.30;12.35;;;1.40;61.70;;;;;;4990087;28;46725;-62
2023/01/23 09:44:06;;;;;;;24.40;13.23;;;1.50;61.60;;;;;;4990839;28;45801;-62
2023/01/23 09:47:01;;;;;;;22.17;11.50;;;1.60;61.10;;;;;;4991803;28;46436;-62
2023/01/23 09:49:44;;;;;;;26.70;14.90;;;1.60;61.00;;;;;;4987074;28;46481;-64
2023/01/23 09:52:19;;;;;;;22.52;12.90;;;1.50;61.30;;;;;;4993535;28;46562;-63
2023/01/23 09:54:48;;;;;;;25.95;12.77;;;1.30;62.40;;;;;;4992108;28;46359;-62
2023/01/23 09:57:19;;;;;;;25.55;12.90;;;1.30;63.10;;;;;;4992551;28;46567;-63
2023/01/23 10:00:24;;;;;;;22.90;13.18;;;1.40;62.50;;;;;;4990602;28;46428;-63
2023/01/23 10:02:52;;;;;;;26.63;12.70;;;1.50;62.10;;;;;;4989215;28;46372;-62
2023/01/23 10:05:24;;;;;;;27.35;13.18;;;1.30;62.60;;;;;;4993304;28;46029;-62
2023/01/23 10:08:29;;;;;;;26.00;13.70;;;1.20;62.60;;;;;;4993840;28;46863;-62
2023/01/23 10:11:09;;;;;;;25.48;11.30;;;1.20;62.50;;;;;;4988094;28;46528;-62
2023/01/23 10:14:01;;;;;;;22.52;11.65;;;1.40;62.00;;;;;;4990526;28;45972;-62
2023/01/23 10:16:53;;;;;;;27.17;12.38;;;1.40;62.20;;;;;;4991752;28;47012;-63
2023/01/23 10:19:44;;;;;;;23.35;13.90;;;1.40;61.90;;;;;;4995053;28;46420;-64
2023/01/23 10:22:35;;;;;;;27.52;11.52;;;1.50;61.60;;;;;;4990043;28;46574;-63
2023/01/23 10:25:11;;;;;;;26.60;12.90;;;1.60;61.40;;;;;;4990715;28;46662;-63
2023/01/23 10:27:44;;;;;;;25.58;12.82;;;1.70;61.30;;;;;;4978992;28;46505;-63
2023/01/23 10:30:25;;;;;;;24.40;13.30;;;1.70;60.90;;;;;;4990967;28;45793;-62
2023/01/23 10:32:55;;;;;;;29.52;13.45;;;1.90;60.60;;;;;;4988916;28;49003;-64
2023/01/23 10:35:46;;;;;;;22.02;12.02;;;1.70;60.50;;;;;;4991905;28;46383;-64
2023/01/23 10:38:22;;;;;;;28.50;12.93;;;1.80;60.50;;;;;;4989654;28;46467;-63
2023/01/23 10:43:32;;;;;;;23.25;11.48;;;1.90;60.20;;;;;;4991750;28;45946;-64
2023/01/23 10:45:58;;;;;;;28.90;15.80;;;2.00;59.60;;;;;;4994638;28;46421;-61
2023/01/23 10:48:41;;;;;;;23.30;12.63;;;2.00;59.70;;;;;;4994616;28;46540;-64
2023/01/23 10:51:25;;;;;;;25.67;12.30;;;2.00;60.20;;;;;;4991244;28;46373;-63
2023/01/23 10:54:13;;;;;;;22.42;11.63;;;2.00;60.40;;;;;;4993519;28;46533;-62
2023/01/23 10:56:49;;;;;;;24.45;12.55;;;2.10;60.00;;;;;;4991420;28;46424;-62
2023/01/23 10:59:40;;;;;;;25.40;11.65;;;2.10;59.30;;;;;;4987590;28;46325;-64
2023/01/23 11:02:12;;;;;;;26.48;13.05;;;2.20;58.80;;;;;;4984669;28;46431;-63
2023/01/23 11:04:39;;;;;;;24.48;12.48;;;1.90;59.40;;;;;;4986741;28;47048;-62
2023/01/23 11:07:05;;;;;;;23.55;12.45;;;1.80;60.00;;;;;;4993026;28;46542;-64
2023/01/23 11:09:44;;;;;;;24.87;12.50;;;1.80;59.90;;;;;;4991444;28;46484;-64
2023/01/23 11:12:16;;;;;;;26.23;12.93;;;1.90;59.60;;;;;;4993359;28;46441;-63
2023/01/23 11:14:42;;;;;;;21.40;11.45;;;2.00;59.20;;;;;;4995727;28;46320;-64
2023/01/23 11:17:23;;;;;;;23.10;12.83;;;1.90;59.20;;;;;;4993906;28;46478;-63
2023/01/23 11:19:53;;;;;;;27.02;13.90;;;1.80;59.40;;;;;;4995085;28;46507;-63
2023/01/23 11:22:35;;;;;;;21.67;12.18;;;1.90;59.50;;;;;;4993817;28;46548;-63
2023/01/23 11:25:27;;;;;;;24.05;13.18;;;1.90;59.20;;;;;;4993858;28;46982;-64
2023/01/23 11:28:02;;;;;;;22.90;12.45;;;1.90;58.90;;;;;;4994808;28;46417;-64
2023/01/23 11:30:40;;;;;;;22.17;11.23;;;1.80;59.10;;;;;;4980056;28;46488;-63
2023/01/23 11:33:24;;;;;;;27.60;11.95;;;1.90;59.10;;;;;;4992297;28;46357;-62
2023/01/23 11:35:58;;;;;;;24.77;13.07;;;2.00;58.80;;;;;;4994133;28;46980;-65
2023/01/23 11:38:41;;;;;;;24.23;12.05;;;2.00;58.60;;;;;;4993929;28;45832;-64
2023/01/23 11:41:11;;;;;;;26.73;12.98;;;2.20;58.80;;;;;;4994409;28;46465;-63
2023/01/23 11:43:37;;;;;;;25.60;12.25;;;2.00;58.60;;;;;;4995737;28;46491;-64
2023/01/23 11:46:10;;;;;;;29.15;13.52;;;2.00;58.60;;;;;;4994465;28;46384;-62
2023/01/23 11:48:45;;;;;;;26.80;12.82;;;2.20;58.80;;;;;;4994666;28;46356;-62
2023/01/23 11:51:16;;;;;;;24.80;11.95;;;2.10;58.70;;;;;;4993958;28;46400;-63
2023/01/23 11:53:59;;;;;;;29.00;14.30;;;2.20;58.80;;;;;;4992175;28;46423;-65
2023/01/23 11:56:30;;;;;;;25.98;14.55;;;2.20;58.80;;;;;;4994937;28;46345;-63
2023/01/23 11:59:02;;;;;;;29.08;13.80;;;2.20;58.30;;;;;;4993325;28;46447;-64
2023/01/23 12:01:41;;;;;;;27.40;13.88;;;2.40;57.90;;;;;;4995877;28;45889;-65
2023/01/23 12:04:28;;;;;;;33.65;16.23;;;2.40;57.80;;;;;;4995154;28;46491;-64
2023/01/23 12:06:59;;;;;;;35.58;20.23;;;2.50;57.70;;;;;;4996099;28;46404;-64
2023/01/23 12:09:42;;;;;;;33.05;17.75;;;2.60;57.50;;;;;;4997174;28;46511;-63
2023/01/23 12:12:31;;;;;;;37.70;18.33;;;2.50;58.30;;;;;;4997065;28;46519;-62
2023/01/23 12:15:06;;;;;;;31.57;14.83;;;2.60;58.10;;;;;;4998100;28;46847;-62
2023/01/23 12:17:44;;;;;;;29.15;14.27;;;2.60;58.00;;;;;;4998033;28;46316;-63
2023/01/23 12:20:45;;;;;;;28.80;13.93;;;2.40;58.10;;;;;;4995110;28;46521;-62
2023/01/23 12:23:13;;;;;;;26.38;14.35;;;2.30;58.80;;;;;;4997226;28;46563;-63
2023/01/23 12:25:41;;;;;;;27.50;13.60;;;2.30;58.70;;;;;;4997300;28;45862;-61
2023/01/23 12:28:29;;;;;;;28.83;12.88;;;2.30;58.80;;;;;;4995666;28;46688;-64
2023/01/23 12:31:20;;;;;;;28.25;13.00;;;2.20;58.80;;;;;;4997471;28;46474;-63
2023/01/23 12:34:18;;;;;;;29.17;16.40;;;2.10;59.10;;;;;;4993194;28;46452;-64
2023/01/23 12:37:05;;;;;;;27.17;13.53;;;2.10;59.60;;;;;;4996899;28;46536;-63
2023/01/23 12:39:58;;;;;;;27.38;14.13;;;2.20;59.80;;;;;;4995649;28;48189;-64
2023/01/23 12:42:45;;;;;;;36.03;16.35;;;2.40;60.40;;;;;;4996549;28;46396;-64
2023/01/23 12:45:21;;;;;;;25.83;13.85;;;2.40;59.00;;;;;;4996125;28;46746;-63
2023/01/23 12:47:56;;;;;;;27.15;14.35;;;2.40;59.20;;;;;;4996849;28;46029;-63
2023/01/23 12:50:52;;;;;;;31.25;14.65;;;2.30;59.80;;;;;;4995450;28;47089;-63